createdAt,value
2022-12-12T00:01:55.579Z,12.57
2022-12-12T00:04:43.059Z,13.87
2022-12-12T00:07:30.198Z,13.03
2022-12-12T00:10:17.356Z,13.67
2022-12-12T00:13:04.525Z,14.40
2022-12-12T00:15:51.960Z,13.13
2022-12-12T00:18:40.206Z,14.40
2022-12-12T00:21:29.250Z,13.90
2022-12-12T00:24:16.664Z,15.00
2022-12-12T00:27:03.824Z,14.73
2022-12-12T00:29:55.072Z,16.57
2022-12-12T00:32:42.168Z,14.40
2022-12-12T00:35:29.284Z,15.37
2022-12-12T00:38:17.931Z,13.83
2022-12-12T00:41:06.546Z,14.50
2022-12-12T00:43:54.229Z,13.10
2022-12-12T00:46:42.389Z,14.27
2022-12-12T00:49:30.237Z,14.33
2022-12-12T00:52:17.791Z,12.43
2022-12-12T00:55:05.393Z,13.60
2022-12-12T00:57:53.987Z,14.67
2022-12-12T01:00:41.657Z,14.07
2022-12-12T01:03:28.764Z,13.67
2022-12-12T01:06:17.161Z,14.00
2022-12-12T01:09:04.345Z,13.00
2022-12-12T01:11:51.925Z,16.53
2022-12-12T01:14:39.658Z,13.97
2022-12-12T01:17:26.858Z,16.10
2022-12-12T01:20:22.717Z,14.23
2022-12-12T01:23:10.952Z,14.67
2022-12-12T01:26:25.073Z,15.23
2022-12-12T01:29:12.399Z,14.10
2022-12-12T01:31:59.607Z,14.57
2022-12-12T01:34:46.987Z,14.17
2022-12-12T01:37:39.313Z,13.40
2022-12-12T01:40:30.616Z,15.97
2022-12-12T01:43:22.779Z,14.17
2022-12-12T01:46:33.684Z,14.67
2022-12-12T01:49:26.249Z,12.93
2022-12-12T01:52:20.295Z,15.27
2022-12-12T01:55:10.976Z,14.47
2022-12-12T01:57:58.512Z,14.53
2022-12-12T02:00:46.058Z,15.27
2022-12-12T02:03:33.348Z,13.83
2022-12-12T02:06:24.913Z,16.40
2022-12-12T02:09:15.423Z,15.00
2022-12-12T02:12:02.643Z,15.87
2022-12-12T02:14:52.482Z,14.73
2022-12-12T02:18:13.420Z,15.67
2022-12-12T02:21:11.774Z,14.07
2022-12-12T02:23:58.890Z,14.90
2022-12-12T02:27:16.709Z,15.40
2022-12-12T02:30:19.018Z,15.37
2022-12-12T02:33:14.868Z,13.10
2022-12-12T02:36:15.808Z,15.03
2022-12-12T02:39:24.988Z,13.97
2022-12-12T02:42:30.192Z,15.10
2022-12-12T02:45:36.516Z,14.40
2022-12-12T02:48:26.835Z,13.40
2022-12-12T02:51:16.064Z,15.57
2022-12-12T02:54:13.989Z,15.03
2022-12-12T02:57:02.394Z,15.47
2022-12-12T03:00:12.532Z,14.60
2022-12-12T03:03:27.742Z,14.23
2022-12-12T03:06:52.755Z,14.00
2022-12-12T03:10:32.845Z,14.80
2022-12-12T03:14:01.642Z,16.00
2022-12-12T03:16:52.712Z,14.13
2022-12-12T03:19:43.853Z,16.10
2022-12-12T03:22:51.384Z,15.33
2022-12-12T03:25:49.654Z,28.00
2022-12-12T03:28:55.639Z,19.90
2022-12-12T03:31:46.294Z,18.90
2022-12-12T03:34:39.996Z,16.77
2022-12-12T03:37:37.253Z,17.43
2022-12-12T03:40:43.900Z,16.30
2022-12-12T03:43:52.255Z,14.73
2022-12-12T03:46:44.540Z,13.87
2022-12-12T03:49:31.640Z,14.17
2022-12-12T03:52:28.788Z,14.27
2022-12-12T03:55:39.971Z,15.07
2022-12-12T03:58:51.164Z,15.63
2022-12-12T04:01:50.811Z,14.40
2022-12-12T04:04:47.246Z,14.00
2022-12-12T04:08:01.213Z,14.47
2022-12-12T04:11:13.218Z,14.47
2022-12-12T04:14:06.128Z,15.07
2022-12-12T04:17:00.800Z,14.00
2022-12-12T04:20:25.438Z,15.03
2022-12-12T04:23:32.613Z,17.33
2022-12-12T04:26:49.379Z,16.23
2022-12-12T04:29:52.082Z,14.67
2022-12-12T04:33:11.458Z,16.47
2022-12-12T04:36:01.887Z,16.80
2022-12-12T04:38:51.791Z,14.53
2022-12-12T04:41:40.411Z,16.47
2022-12-12T04:44:30.743Z,16.50
2022-12-12T04:47:20.451Z,17.43
2022-12-12T04:50:10.055Z,17.60
2022-12-12T04:53:01.403Z,15.80
2022-12-12T04:55:51.729Z,18.57
2022-12-12T04:58:40.202Z,15.43
2022-12-12T05:02:00.711Z,17.43
2022-12-12T05:04:51.748Z,16.70
2022-12-12T05:07:41.938Z,17.23
2022-12-12T05:10:29.838Z,15.67
2022-12-12T05:13:20.285Z,16.67
2022-12-12T05:16:15.490Z,15.27
2022-12-12T05:19:02.918Z,16.40
2022-12-12T05:21:50.143Z,16.50
2022-12-12T05:24:37.550Z,15.43
2022-12-12T05:27:25.053Z,14.97
2022-12-12T05:30:12.962Z,18.10
2022-12-12T05:33:00.288Z,16.90
2022-12-12T05:35:47.404Z,16.77
2022-12-12T05:38:35.420Z,18.23
2022-12-12T05:41:22.741Z,18.53
2022-12-12T05:44:10.206Z,17.47
2022-12-12T05:46:57.419Z,16.27
2022-12-12T05:49:45.386Z,17.90
2022-12-12T05:52:33.291Z,17.87
2022-12-12T05:55:20.432Z,17.30
2022-12-12T05:58:08.281Z,17.73
2022-12-12T06:00:58.630Z,18.40
2022-12-12T06:03:50.277Z,17.80
2022-12-12T06:06:37.697Z,16.90
2022-12-12T06:09:25.089Z,17.50
2022-12-12T06:12:12.604Z,17.50
2022-12-12T06:14:59.780Z,18.63
2022-12-12T06:17:47.022Z,17.57
2022-12-12T06:20:34.323Z,19.33
2022-12-12T06:23:21.714Z,17.27
2022-12-12T06:26:11.470Z,18.60
2022-12-12T06:32:03.793Z,16.17
2022-12-12T06:34:51.308Z,16.30
2022-12-12T06:37:40.391Z,15.57
2022-12-12T06:40:27.556Z,18.13
2022-12-12T06:43:14.801Z,17.13
2022-12-12T06:46:07.537Z,17.80
2022-12-12T06:48:56.100Z,16.33
2022-12-12T06:51:44.614Z,18.00
2022-12-12T06:54:32.051Z,19.00
2022-12-12T06:57:19.207Z,19.20
2022-12-12T07:00:07.187Z,21.27
2022-12-12T07:02:54.385Z,17.80
2022-12-12T07:05:42.024Z,18.50
2022-12-12T07:08:29.168Z,16.20
2022-12-12T07:11:22.274Z,15.67
2022-12-12T07:14:10.368Z,18.50
2022-12-12T07:16:57.678Z,18.57
2022-12-12T07:19:45.175Z,17.40
2022-12-12T07:22:32.356Z,16.13
2022-12-12T07:25:19.544Z,20.07
2022-12-12T07:28:07.879Z,18.53
2022-12-12T07:30:55.021Z,17.63
2022-12-12T07:33:44.780Z,17.03
2022-12-12T07:36:32.149Z,16.57
2022-12-12T07:39:21.169Z,18.20
2022-12-12T07:42:08.156Z,18.90
2022-12-12T07:44:55.273Z,17.10
2022-12-12T07:47:42.242Z,18.23
2022-12-12T07:50:29.330Z,16.83
2022-12-12T07:53:16.323Z,17.70
2022-12-12T07:56:08.485Z,15.80
2022-12-12T07:58:55.568Z,18.77
2022-12-12T08:01:42.894Z,18.00
2022-12-12T08:04:30.361Z,16.10
2022-12-12T08:07:17.347Z,15.47
2022-12-12T08:10:05.855Z,18.30
2022-12-12T08:12:52.796Z,17.57
2022-12-12T08:15:39.762Z,16.83
2022-12-12T08:18:26.959Z,18.70
2022-12-12T08:21:17.683Z,15.83
2022-12-12T08:24:12.793Z,18.60
2022-12-12T08:26:59.827Z,18.20
2022-12-12T08:29:46.844Z,16.70
2022-12-12T08:32:33.797Z,18.50
2022-12-12T08:35:21.047Z,19.60
2022-12-12T08:38:08.045Z,18.17
2022-12-12T08:40:55.000Z,19.00
2022-12-12T08:43:43.729Z,17.90
2022-12-12T08:46:30.923Z,17.47
2022-12-12T08:49:17.899Z,18.13
2022-12-12T08:52:09.721Z,19.10
2022-12-12T08:54:57.688Z,19.10
2022-12-12T08:57:44.661Z,20.40
2022-12-12T09:00:31.637Z,21.30
2022-12-12T09:03:24.768Z,17.70
2022-12-12T09:06:16.611Z,17.60
2022-12-12T09:09:03.693Z,19.47
2022-12-12T09:11:50.684Z,21.43
2022-12-12T09:14:38.133Z,22.30
2022-12-12T09:17:25.426Z,20.33
2022-12-12T09:20:12.460Z,20.27
2022-12-12T09:22:59.689Z,18.60
2022-12-12T09:25:47.576Z,21.10
2022-12-12T09:28:35.328Z,20.60
2022-12-12T09:31:22.504Z,22.83
2022-12-12T09:34:09.958Z,21.70
2022-12-12T09:36:56.897Z,24.70
2022-12-12T09:39:44.025Z,23.80
2022-12-12T09:42:33.115Z,22.13
2022-12-12T09:45:20.777Z,18.53
2022-12-12T09:48:08.348Z,23.23
2022-12-12T09:50:55.368Z,20.73
2022-12-12T09:53:45.104Z,21.33
2022-12-12T09:56:43.787Z,23.83
2022-12-12T09:59:55.457Z,21.50
2022-12-12T10:03:15.174Z,25.20
2022-12-12T10:06:35.774Z,24.57
2022-12-12T10:09:36.529Z,23.97
2022-12-12T10:12:24.478Z,24.50
2022-12-12T10:15:25.329Z,23.70
2022-12-12T10:18:39.280Z,20.43
2022-12-12T10:21:30.422Z,21.77
2022-12-12T10:24:41.455Z,20.87
2022-12-12T10:27:30.226Z,21.83
2022-12-12T10:30:20.403Z,20.10
2022-12-12T10:33:33.789Z,23.17
2022-12-12T10:36:39.228Z,21.67
2022-12-12T10:39:38.201Z,20.60
2022-12-12T10:42:57.485Z,18.80
2022-12-12T10:46:11.244Z,22.70
2022-12-12T10:48:58.450Z,21.90
2022-12-12T10:51:48.789Z,21.13
2022-12-12T10:54:44.473Z,21.20
2022-12-12T10:57:35.390Z,20.90
2022-12-12T11:00:29.717Z,22.17
2022-12-12T11:03:27.910Z,20.80
2022-12-12T11:06:20.684Z,19.63
2022-12-12T11:09:15.638Z,19.33
2022-12-12T11:12:11.820Z,18.60
2022-12-12T11:15:07.504Z,18.13
2022-12-12T11:18:04.252Z,19.40
2022-12-12T11:21:06.547Z,19.10
2022-12-12T11:23:56.424Z,18.10
2022-12-12T11:26:52.473Z,17.60
2022-12-12T11:29:48.130Z,19.03
2022-12-12T11:32:43.982Z,18.60
2022-12-12T11:35:47.537Z,17.30
2022-12-12T11:38:40.899Z,17.57
2022-12-12T11:41:28.437Z,17.00
2022-12-12T11:44:27.741Z,18.70
2022-12-12T11:47:30.568Z,16.97
2022-12-12T11:50:29.338Z,18.10
2022-12-12T11:53:16.634Z,17.13
2022-12-12T11:56:22.386Z,17.10
2022-12-12T11:59:18.219Z,16.13
2022-12-12T12:02:08.522Z,17.50
2022-12-12T12:05:39.827Z,15.93
2022-12-12T12:08:53.605Z,18.80
2022-12-12T12:11:47.053Z,16.20
2022-12-12T12:14:48.908Z,18.00
2022-12-12T12:18:17.274Z,15.07
2022-12-12T12:21:27.154Z,17.07
2022-12-12T12:24:45.361Z,16.17
2022-12-12T12:28:13.913Z,14.87
2022-12-12T12:31:22.313Z,17.17
2022-12-12T12:34:33.025Z,15.73
2022-12-12T12:37:20.115Z,16.47
2022-12-12T12:40:22.939Z,14.77
2022-12-12T12:43:12.788Z,15.77
2022-12-12T12:46:30.850Z,16.03
2022-12-12T12:49:28.795Z,16.23
2022-12-12T12:52:32.541Z,17.47
2022-12-12T12:55:24.198Z,14.87
2022-12-12T12:58:21.951Z,16.03
2022-12-12T13:01:16.760Z,14.40
2022-12-12T13:04:07.277Z,15.40
2022-12-12T13:07:03.334Z,16.37
2022-12-12T13:10:00.620Z,13.93
2022-12-12T13:12:56.890Z,14.80
2022-12-12T13:15:49.019Z,15.07
2022-12-12T13:18:52.180Z,14.67
2022-12-12T13:21:49.612Z,13.70
2022-12-12T13:24:42.902Z,13.73
2022-12-12T13:27:38.829Z,14.50
2022-12-12T13:30:45.971Z,13.87
2022-12-12T13:33:38.047Z,14.43
2022-12-12T13:36:45.822Z,13.33
2022-12-12T13:39:36.108Z,15.90
2022-12-12T13:42:23.246Z,14.80
2022-12-12T13:45:38.011Z,13.43
2022-12-12T13:48:28.252Z,14.17
2022-12-12T13:51:36.084Z,13.60
2022-12-12T13:54:23.214Z,15.30
2022-12-12T13:57:20.902Z,15.27
2022-12-12T14:00:16.180Z,14.90
2022-12-12T14:03:23.430Z,14.90
2022-12-12T14:06:12.329Z,13.13
2022-12-12T14:08:59.802Z,13.90
2022-12-12T14:11:48.021Z,13.67
2022-12-12T14:14:36.981Z,13.60
2022-12-12T14:17:26.496Z,14.60
2022-12-12T14:20:33.556Z,14.93
2022-12-12T14:23:20.525Z,15.80
2022-12-12T14:26:39.795Z,16.03
2022-12-12T14:29:29.664Z,14.00
2022-12-12T14:32:43.638Z,13.07
2022-12-12T14:35:54.757Z,13.00
2022-12-12T14:38:41.869Z,14.10
2022-12-12T14:41:35.451Z,14.40
2022-12-12T14:44:36.741Z,13.40
2022-12-12T14:47:25.761Z,13.83
2022-12-12T14:50:17.317Z,12.00
2022-12-12T14:53:13.814Z,12.50
2022-12-12T14:56:04.133Z,15.00
2022-12-12T14:59:23.158Z,14.97
2022-12-12T15:02:29.454Z,14.83
2022-12-12T15:05:16.837Z,15.40
2022-12-12T15:08:03.860Z,13.17
2022-12-12T15:10:59.221Z,12.67
2022-12-12T15:13:58.338Z,16.53
2022-12-12T15:16:50.225Z,13.33
2022-12-12T15:19:45.290Z,14.83
2022-12-12T15:22:53.109Z,13.00
2022-12-12T15:25:54.763Z,14.73
2022-12-12T15:28:45.408Z,14.17
2022-12-12T15:31:32.645Z,15.30
2022-12-12T15:34:40.169Z,14.20
2022-12-12T15:37:28.230Z,12.83
2022-12-12T15:40:18.396Z,13.33
2022-12-12T15:43:11.281Z,12.90
2022-12-12T15:45:59.973Z,13.10
2022-12-12T15:48:49.440Z,13.67
2022-12-12T15:51:37.262Z,11.90
2022-12-12T15:54:25.050Z,12.53
2022-12-12T15:57:17.931Z,13.80
2022-12-12T16:00:11.249Z,15.57
2022-12-12T16:03:18.318Z,14.43
2022-12-12T16:06:16.595Z,14.70
2022-12-12T16:09:36.293Z,15.00
2022-12-12T16:13:17.436Z,15.03
2022-12-12T16:16:37.304Z,15.20
2022-12-12T16:19:42.154Z,16.40
2022-12-12T16:22:49.994Z,18.00
2022-12-12T16:25:37.147Z,16.07
2022-12-12T16:28:26.140Z,14.70
2022-12-12T16:31:17.088Z,15.10
2022-12-12T16:34:04.475Z,14.17
2022-12-12T16:36:51.507Z,15.53
2022-12-12T16:39:38.424Z,15.50
2022-12-12T16:42:26.459Z,14.30
2022-12-12T16:45:13.433Z,14.40
2022-12-12T16:48:00.514Z,14.63
2022-12-12T16:50:49.550Z,14.70
2022-12-12T16:53:37.119Z,15.77
2022-12-12T16:56:24.732Z,15.37
2022-12-12T16:59:11.936Z,14.63
2022-12-12T17:01:59.246Z,14.63
2022-12-12T17:04:46.500Z,15.10
2022-12-12T17:07:33.500Z,14.40
2022-12-12T17:10:24.221Z,14.33
2022-12-12T17:13:19.594Z,16.07
2022-12-12T17:16:06.781Z,16.03
2022-12-12T17:18:54.163Z,15.27
2022-12-12T17:21:42.554Z,17.10
2022-12-12T17:24:29.663Z,15.87
2022-12-12T17:27:16.669Z,16.00
2022-12-12T17:30:05.835Z,15.70
2022-12-12T17:36:03.143Z,15.30
2022-12-12T17:38:50.513Z,15.30
2022-12-12T17:41:37.861Z,15.47
2022-12-12T17:44:25.256Z,16.70
2022-12-12T17:47:12.423Z,16.23
2022-12-12T17:49:59.786Z,15.90
2022-12-12T17:52:47.246Z,15.83
2022-12-12T17:55:53.307Z,17.20
2022-12-12T17:58:46.190Z,18.40
2022-12-12T18:01:34.466Z,16.50
2022-12-12T18:04:30.833Z,16.47
2022-12-12T18:07:18.644Z,15.60
2022-12-12T18:10:08.111Z,14.13
2022-12-12T18:12:56.425Z,15.40
2022-12-12T18:15:45.068Z,16.73
2022-12-12T18:18:33.287Z,17.83
2022-12-12T18:24:34.365Z,17.93
2022-12-12T18:27:22.880Z,17.40
2022-12-12T18:30:25.071Z,20.77
2022-12-12T18:33:13.557Z,21.00
2022-12-12T18:36:07.208Z,23.30
2022-12-12T18:39:03.002Z,21.53
2022-12-12T18:41:53.193Z,21.90
2022-12-12T18:44:46.289Z,19.60
2022-12-12T18:47:33.709Z,20.47
2022-12-12T18:50:26.041Z,19.13
2022-12-12T18:53:15.799Z,18.50
2022-12-12T18:56:07.398Z,18.50
2022-12-12T18:58:59.806Z,18.07
2022-12-12T19:01:49.572Z,18.37
2022-12-12T19:04:38.973Z,18.50
2022-12-12T19:07:27.620Z,20.97
2022-12-12T19:10:15.536Z,17.90
2022-12-12T19:13:05.904Z,17.70
2022-12-12T19:15:53.480Z,17.83
2022-12-12T19:18:48.054Z,18.57
2022-12-12T19:21:36.232Z,18.13
2022-12-12T19:24:31.444Z,20.17
2022-12-12T19:27:20.370Z,18.60
2022-12-12T19:30:14.329Z,18.50
2022-12-12T19:33:02.152Z,19.10
2022-12-12T19:35:53.398Z,20.40
2022-12-12T19:38:50.355Z,19.07
2022-12-12T19:41:38.926Z,21.57
2022-12-12T19:44:37.523Z,19.77
2022-12-12T19:47:30.271Z,18.57
2022-12-12T19:50:17.913Z,18.33
2022-12-12T19:53:05.853Z,19.87
2022-12-12T19:55:54.352Z,18.60
2022-12-12T19:58:51.381Z,18.13
2022-12-12T20:01:43.831Z,17.47
2022-12-12T20:04:33.516Z,20.10
2022-12-12T20:07:21.903Z,17.70
2022-12-12T20:10:10.835Z,19.40
2022-12-12T20:12:59.230Z,18.03
2022-12-12T20:15:52.563Z,21.00
2022-12-12T20:18:51.576Z,17.70
2022-12-12T20:22:00.305Z,18.27
2022-12-12T20:24:49.296Z,20.13
2022-12-12T20:27:38.228Z,19.27
2022-12-12T20:30:36.487Z,19.00
2022-12-12T20:33:35.851Z,18.10
2022-12-12T20:36:40.461Z,18.40
2022-12-12T20:39:38.214Z,20.75
2022-12-12T20:42:26.087Z,18.67
2022-12-12T20:45:14.188Z,20.03
2022-12-12T20:48:07.632Z,19.80
2022-12-12T20:50:59.096Z,18.07
2022-12-12T20:53:48.726Z,19.20
2022-12-12T20:56:41.509Z,18.60
2022-12-12T20:59:32.428Z,19.33
2022-12-12T21:02:30.627Z,18.80
2022-12-12T21:05:19.115Z,21.10
2022-12-12T21:08:11.188Z,20.77
2022-12-12T21:11:02.864Z,20.30
2022-12-12T21:13:51.442Z,18.30
2022-12-12T21:16:40.662Z,17.43
2022-12-12T21:19:29.464Z,20.50
2022-12-12T21:22:24.641Z,19.83
2022-12-12T21:25:20.468Z,18.23
2022-12-12T21:28:15.992Z,17.80
2022-12-12T21:31:15.286Z,17.07
2022-12-12T21:34:18.279Z,19.90
2022-12-12T21:37:12.990Z,17.40
2022-12-12T21:40:07.312Z,18.17
2022-12-12T21:43:03.453Z,17.90
2022-12-12T21:45:50.977Z,20.40
2022-12-12T21:48:50.453Z,17.90
2022-12-12T21:51:52.352Z,19.30
2022-12-12T21:54:48.732Z,18.10
2022-12-12T21:57:39.413Z,17.80
2022-12-12T22:00:38.284Z,18.00
2022-12-12T22:03:31.112Z,18.73
2022-12-12T22:06:28.232Z,17.60
2022-12-12T22:09:17.087Z,17.03
2022-12-12T22:12:10.029Z,18.50
2022-12-12T22:15:04.909Z,18.73
2022-12-12T22:17:58.899Z,18.60
2022-12-12T22:20:58.515Z,16.70
2022-12-12T22:24:02.047Z,19.10
2022-12-12T22:26:59.012Z,20.10
2022-12-12T22:29:54.137Z,18.20
2022-12-12T22:32:43.574Z,19.47
2022-12-12T22:35:32.118Z,21.60
2022-12-12T22:38:20.409Z,20.30
2022-12-12T22:41:09.651Z,20.23
2022-12-12T22:44:12.532Z,18.40
2022-12-12T22:47:01.339Z,18.93
2022-12-12T22:49:49.428Z,19.27
2022-12-12T22:52:45.619Z,21.00
2022-12-12T22:55:45.410Z,20.47
2022-12-12T22:58:34.025Z,20.00
2022-12-12T23:01:24.134Z,20.23
2022-12-12T23:04:18.014Z,18.37
2022-12-12T23:07:06.214Z,19.77
2022-12-12T23:10:02.516Z,19.67
2022-12-12T23:12:49.872Z,20.20
2022-12-12T23:15:43.408Z,22.47
2022-12-12T23:18:30.918Z,18.60
2022-12-12T23:21:23.383Z,20.30
2022-12-12T23:24:11.678Z,19.27
2022-12-12T23:26:58.983Z,20.00
2022-12-12T23:29:49.365Z,19.92
2022-12-12T23:32:37.595Z,20.38
2022-12-12T23:35:25.138Z,19.13
2022-12-12T23:38:13.495Z,19.33
2022-12-12T23:41:08.077Z,18.27
2022-12-12T23:44:01.472Z,18.60
2022-12-12T23:46:49.834Z,18.70
2022-12-12T23:49:42.211Z,21.10
2022-12-12T23:52:30.066Z,17.60
2022-12-12T23:55:18.084Z,17.58
2022-12-12T23:58:06.616Z,18.95
